Time;durP1;ratioP1;P1;durP2;ratioP2;P2;SDS_P1;SDS_P2;PMS_P1;PMS_P2;Temp;Humidity;BMP_temperature;BMP_pressure;BME280_temperature;BME280_humidity;BME280_pressure;Samples;Min_cycle;Max_cycle;Signal;HPM_P1;HPM_P2
2022/10/02 00:01:15;;;;;;;7.32;2.40;;;;;;;;;;5080274;28;20496;-65
2022/10/02 00:03:43;;;;;;;8.15;2.20;;;;;;;;;;5075903;28;20042;-65
2022/10/02 00:06:21;;;;;;;9.15;2.15;;;;;;;;;;5069373;28;20036;-65
2022/10/02 00:08:48;;;;;;;11.73;2.50;;;;;;;;;;5062992;28;20075;-65
2022/10/02 00:11:21;;;;;;;7.28;2.60;;;;;;;;;;5070704;28;20020;-66
2022/10/02 00:13:56;;;;;;;11.77;2.70;;;;;;;;;;5066703;28;20611;-66
2022/10/02 00:16:25;;;;;;;7.32;2.72;;;;;;;;;;5063467;28;20077;-66
2022/10/02 00:18:53;;;;;;;8.68;2.80;;;;;;;;;;5068495;28;20037;-66
2022/10/02 00:21:19;;;;;;;9.10;2.60;;;;;;;;;;5071814;28;20031;-65
2022/10/02 00:23:49;;;;;;;6.45;2.30;;;;;;;;;;5064196;28;20421;-66
2022/10/02 00:26:16;;;;;;;9.45;2.40;;;;;;;;;;5067332;28;20441;-66
2022/10/02 00:28:47;;;;;;;8.48;2.08;;;;;;;;;;5061807;28;20047;-66
2022/10/02 00:31:16;;;;;;;7.65;2.10;;;;;;;;;;5073647;28;20080;-66
2022/10/02 00:33:42;;;;;;;8.32;1.77;;;;;;;;;;5073115;27;20036;-66
2022/10/02 00:36:27;;;;;;;6.63;1.88;;;;;;;;;;5081566;27;20032;-66
2022/10/02 00:39:18;;;;;;;6.35;1.77;;;;;;;;;;5079336;28;20032;-66
2022/10/02 00:41:59;;;;;;;8.75;2.00;;;;;;;;;;5064939;28;20031;-66
2022/10/02 00:44:34;;;;;;;9.23;1.95;;;;;;;;;;5055038;28;20112;-65
2022/10/02 00:47:09;;;;;;;9.65;4.30;;;;;;;;;;5035549;28;20032;-66
2022/10/02 00:49:35;;;;;;;11.60;4.30;;;;;;;;;;5043804;28;20054;-66
2022/10/02 00:52:24;;;;;;;11.02;4.47;;;;;;;;;;5075929;28;20039;-66
2022/10/02 00:55:11;;;;;;;13.82;7.40;;;;;;;;;;5060388;28;20077;-66
2022/10/02 00:57:53;;;;;;;12.73;6.43;;;;;;;;;;5052293;28;20580;-66
2022/10/02 01:00:20;;;;;;;10.75;4.35;;;;;;;;;;5076289;28;20038;-66
2022/10/02 01:02:49;;;;;;;10.43;4.47;;;;;;;;;;5075027;28;20786;-66
2022/10/02 01:05:15;;;;;;;11.07;3.72;;;;;;;;;;5082466;28;20049;-66
2022/10/02 01:07:43;;;;;;;7.43;3.10;;;;;;;;;;5085887;28;20039;-64
2022/10/02 01:10:11;;;;;;;10.07;2.92;;;;;;;;;;5083392;28;20085;-63
2022/10/02 01:12:37;;;;;;;6.10;2.10;;;;;;;;;;5072957;28;20063;-65
2022/10/02 01:15:03;;;;;;;;;;;;;;;;;;5082923;28;20405;-65
2022/10/02 01:17:33;;;;;;;7.80;1.90;;;;;;;;;;5073153;28;19931;-65
2022/10/02 01:20:02;;;;;;;6.07;1.70;;;;;;;;;;5054539;28;20528;-65
2022/10/02 01:22:49;;;;;;;6.25;2.10;;;;;;;;;;5066691;28;20489;-65
2022/10/02 01:25:15;;;;;;;6.57;2.00;;;;;;;;;;5016940;28;20051;-64
2022/10/02 01:27:41;;;;;;;6.82;1.85;;;;;;;;;;5028910;28;20043;-65
2022/10/02 01:30:11;;;;;;;5.50;1.98;;;;;;;;;;5020510;28;20032;-64
2022/10/02 01:32:41;;;;;;;5.28;1.77;;;;;;;;;;5032101;28;20120;-65
2022/10/02 01:35:08;;;;;;;5.57;2.00;;;;;;;;;;5020508;28;20032;-65
2022/10/02 01:37:36;;;;;;;6.22;2.10;;;;;;;;;;5020714;28;22218;-64
2022/10/02 01:40:08;;;;;;;7.32;1.90;;;;;;;;;;5041450;28;20092;-65
2022/10/02 01:42:34;;;;;;;5.82;2.03;;;;;;;;;;5037979;28;20706;-64
2022/10/02 01:45:01;;;;;;;6.03;1.77;;;;;;;;;;5021444;28;20019;-64
2022/10/02 01:47:31;;;;;;;3.63;1.38;;;;;;;;;;5036008;28;20046;-64
2022/10/02 01:50:06;;;;;;;4.55;1.10;;;;;;;;;;5037949;28;21207;-64
2022/10/02 01:52:44;;;;;;;2.53;0.98;;;;;;;;;;5019106;28;20171;-65
2022/10/02 01:55:10;;;;;;;4.00;1.00;;;;;;;;;;5002519;28;20572;-64
2022/10/02 01:57:53;;;;;;;4.22;1.08;;;;;;;;;;5030170;28;20057;-64
2022/10/02 02:00:24;;;;;;;3.75;0.90;;;;;;;;;;5056859;28;20529;-65
2022/10/02 02:02:55;;;;;;;2.25;0.93;;;;;;;;;;5086635;28;20495;-65
2022/10/02 02:05:25;;;;;;;2.97;0.73;;;;;;;;;;5084297;28;20038;-64
2022/10/02 02:08:10;;;;;;;3.38;0.80;;;;;;;;;;5072365;28;20035;-65
2022/10/02 02:10:51;;;;;;;3.67;0.98;;;;;;;;;;5077491;28;20039;-65
2022/10/02 02:13:26;;;;;;;2.72;0.70;;;;;;;;;;5074267;28;20032;-65
2022/10/02 02:15:56;;;;;;;3.80;1.05;;;;;;;;;;5079873;28;20038;-67
2022/10/02 02:18:42;;;;;;;4.93;1.10;;;;;;;;;;5055808;28;20075;-65
2022/10/02 02:21:12;;;;;;;2.97;0.95;;;;;;;;;;5078414;28;20586;-65
2022/10/02 02:23:39;;;;;;;3.78;1.13;;;;;;;;;;5064816;28;20371;-65
2022/10/02 02:26:08;;;;;;;6.07;1.60;;;;;;;;;;5072582;28;20128;-65
2022/10/02 02:28:34;;;;;;;5.57;1.75;;;;;;;;;;5065802;28;20043;-65
2022/10/02 02:31:02;;;;;;;10.40;3.08;;;;;;;;;;5084171;28;20030;-64
2022/10/02 02:33:37;;;;;;;12.85;3.67;;;;;;;;;;5083164;28;20055;-64
2022/10/02 02:36:07;;;;;;;11.25;3.60;;;;;;;;;;5067432;28;20040;-64
2022/10/02 02:38:38;;;;;;;8.77;3.22;;;;;;;;;;5069291;28;20020;-65
2022/10/02 02:41:07;;;;;;;9.43;3.33;;;;;;;;;;5071913;28;20382;-64
2022/10/02 02:43:37;;;;;;;10.80;3.65;;;;;;;;;;5075922;28;20093;-65
2022/10/02 02:46:07;;;;;;;12.15;3.88;;;;;;;;;;5074952;28;20036;-65
2022/10/02 02:48:36;;;;;;;14.30;3.72;;;;;;;;;;5075173;28;20042;-65
2022/10/02 02:51:15;;;;;;;10.88;3.40;;;;;;;;;;5074593;27;20120;-65
2022/10/02 02:53:43;;;;;;;11.75;3.42;;;;;;;;;;5085741;27;20027;-65
2022/10/02 02:56:13;;;;;;;9.77;2.75;;;;;;;;;;5085111;28;20059;-64
2022/10/02 02:58:48;;;;;;;7.93;2.40;;;;;;;;;;5079923;28;20075;-65
2022/10/02 03:01:14;;;;;;;8.70;2.22;;;;;;;;;;5076116;28;20038;-64
2022/10/02 03:03:40;;;;;;;6.93;1.83;;;;;;;;;;5086443;28;20038;-64
2022/10/02 03:06:06;;;;;;;;;;;;;;;;;;5088226;28;20060;-64
2022/10/02 03:08:38;;;;;;;8.23;2.40;;;;;;;;;;5071739;28;20384;-64
2022/10/02 03:11:15;;;;;;;7.75;2.10;;;;;;;;;;5076417;28;20031;-64
2022/10/02 03:14:00;;;;;;;7.80;2.35;;;;;;;;;;5076415;28;20612;-64
2022/10/02 03:16:29;;;;;;;6.60;1.73;;;;;;;;;;5074544;28;20107;-64
2022/10/02 03:19:02;;;;;;;6.55;1.60;;;;;;;;;;5054328;28;20032;-64
2022/10/02 03:21:39;;;;;;;7.55;1.60;;;;;;;;;;5076788;28;20031;-64
2022/10/02 03:24:12;;;;;;;3.75;1.10;;;;;;;;;;5075642;28;20057;-64
2022/10/02 03:26:46;;;;;;;4.25;1.10;;;;;;;;;;5083766;28;20052;-64
2022/10/02 03:29:22;;;;;;;3.97;1.10;;;;;;;;;;5085431;28;20450;-64
2022/10/02 03:31:49;;;;;;;4.97;1.10;;;;;;;;;;5072346;28;20469;-64
2022/10/02 03:34:16;;;;;;;5.00;1.00;;;;;;;;;;5082710;28;20562;-64
2022/10/02 03:36:42;;;;;;;3.90;0.88;;;;;;;;;;5072810;28;20321;-64
2022/10/02 03:39:09;;;;;;;5.18;1.00;;;;;;;;;;5077455;27;20032;-64
2022/10/02 03:41:35;;;;;;;3.45;0.82;;;;;;;;;;5053800;28;20042;-65
2022/10/02 03:44:01;;;;;;;5.50;1.08;;;;;;;;;;5085340;27;20028;-65
2022/10/02 03:46:27;;;;;;;;;;;;;;;;;;5079808;28;20042;-65
2022/10/02 03:48:55;;;;;;;3.78;0.80;;;;;;;;;;5081178;27;19916;-65
2022/10/02 03:51:22;;;;;;;3.22;0.80;;;;;;;;;;5075095;28;20023;-65
2022/10/02 03:53:48;;;;;;;1.77;0.70;;;;;;;;;;5083183;28;20103;-65
2022/10/02 03:56:21;;;;;;;3.38;0.90;;;;;;;;;;5069050;28;20023;-65
2022/10/02 03:58:51;;;;;;;3.78;0.73;;;;;;;;;;5079002;28;20032;-65
2022/10/02 04:01:20;;;;;;;4.50;0.88;;;;;;;;;;5083457;28;20039;-64
2022/10/02 04:03:49;;;;;;;5.97;0.93;;;;;;;;;;5087698;28;20035;-64
2022/10/02 04:06:19;;;;;;;2.97;0.70;;;;;;;;;;5083134;28;20081;-64
2022/10/02 04:08:47;;;;;;;2.42;0.77;;;;;;;;;;5081136;28;20031;-64
2022/10/02 04:11:25;;;;;;;3.45;0.68;;;;;;;;;;5083905;27;20495;-64
2022/10/02 04:13:59;;;;;;;2.88;0.80;;;;;;;;;;5088737;27;20394;-65
2022/10/02 04:16:31;;;;;;;7.65;0.90;;;;;;;;;;5079840;28;20036;-64
2022/10/02 04:18:59;;;;;;;3.78;0.85;;;;;;;;;;5075248;28;20046;-65
2022/10/02 04:21:25;;;;;;;2.90;0.70;;;;;;;;;;5079292;28;20031;-64
2022/10/02 04:24:11;;;;;;;2.10;0.60;;;;;;;;;;5087791;28;20031;-64
2022/10/02 04:26:41;;;;;;;4.50;0.70;;;;;;;;;;5031233;28;20068;-64
2022/10/02 04:29:28;;;;;;;3.03;0.82;;;;;;;;;;5078438;27;20050;-64
2022/10/02 04:31:56;;;;;;;2.53;0.70;;;;;;;;;;5071190;28;20028;-65
2022/10/02 04:34:23;;;;;;;3.90;0.80;;;;;;;;;;5078402;28;20089;-65
2022/10/02 04:37:04;;;;;;;3.67;0.90;;;;;;;;;;5084726;28;20461;-65
2022/10/02 04:39:36;;;;;;;2.70;0.70;;;;;;;;;;5074441;28;20027;-65
2022/10/02 04:42:15;;;;;;;3.63;0.73;;;;;;;;;;5088002;28;20074;-65
2022/10/02 04:44:54;;;;;;;3.90;0.80;;;;;;;;;;5086159;28;20084;-65
2022/10/02 04:47:43;;;;;;;3.35;0.70;;;;;;;;;;5078535;28;20015;-65
2022/10/02 04:50:16;;;;;;;3.83;0.90;;;;;;;;;;5083142;28;20067;-65
2022/10/02 04:52:44;;;;;;;3.97;0.98;;;;;;;;;;5067362;28;20038;-65
2022/10/02 04:55:17;;;;;;;3.38;1.00;;;;;;;;;;5075060;28;20104;-65
2022/10/02 04:57:55;;;;;;;4.85;1.00;;;;;;;;;;5067195;28;20036;-64
2022/10/02 05:00:23;;;;;;;6.13;1.20;;;;;;;;;;5084523;28;20578;-64
2022/10/02 05:02:57;;;;;;;4.88;0.90;;;;;;;;;;5076237;28;20480;-64
2022/10/02 05:05:35;;;;;;;4.10;0.88;;;;;;;;;;5073516;28;20075;-64
2022/10/02 05:08:01;;;;;;;6.07;1.10;;;;;;;;;;5086226;27;20555;-64
2022/10/02 05:10:35;;;;;;;4.05;0.90;;;;;;;;;;5051104;28;20028;-64
2022/10/02 05:13:01;;;;;;;5.88;0.98;;;;;;;;;;5080696;28;20051;-65
2022/10/02 05:16:00;;;;;;;2.92;0.70;;;;;;;;;;5051962;28;20157;-64
2022/10/02 05:18:29;;;;;;;5.85;0.82;;;;;;;;;;5018363;28;20051;-64
2022/10/02 05:21:01;;;;;;;1.92;0.52;;;;;;;;;;5023779;28;20699;-64
2022/10/02 05:23:46;;;;;;;3.70;0.77;;;;;;;;;;5021894;28;20033;-65
2022/10/02 05:26:26;;;;;;;4.15;0.85;;;;;;;;;;5022994;28;20493;-65
2022/10/02 05:29:10;;;;;;;3.38;0.70;;;;;;;;;;5023535;28;20244;-65
2022/10/02 05:31:37;;;;;;;4.75;1.00;;;;;;;;;;5021804;28;20515;-65
2022/10/02 05:34:03;;;;;;;5.07;0.93;;;;;;;;;;5024292;28;20114;-65
2022/10/02 05:36:35;;;;;;;5.53;1.10;;;;;;;;;;5017454;28;20399;-65
2022/10/02 05:39:01;;;;;;;4.57;1.10;;;;;;;;;;5024497;28;21398;-65
2022/10/02 05:41:27;;;;;;;3.95;0.80;;;;;;;;;;5019161;28;20506;-65
2022/10/02 05:44:01;;;;;;;5.97;1.05;;;;;;;;;;5025261;28;20040;-65
2022/10/02 05:46:30;;;;;;;3.58;0.80;;;;;;;;;;5023669;28;20261;-65
2022/10/02 05:48:57;;;;;;;6.00;1.00;;;;;;;;;;5024629;28;20032;-64
2022/10/02 05:51:35;;;;;;;4.97;0.70;;;;;;;;;;5020698;28;20033;-65
2022/10/02 05:54:07;;;;;;;4.57;0.90;;;;;;;;;;5053682;28;20039;-66
2022/10/02 05:56:38;;;;;;;2.78;0.70;;;;;;;;;;5071458;28;20472;-65
2022/10/02 05:59:09;;;;;;;3.97;0.90;;;;;;;;;;5070497;28;20039;-66
2022/10/02 06:01:40;;;;;;;4.82;1.10;;;;;;;;;;5069779;28;20036;-65
2022/10/02 06:04:25;;;;;;;3.95;1.20;;;;;;;;;;5072879;28;20040;-65
2022/10/02 06:06:54;;;;;;;5.05;1.30;;;;;;;;;;5080664;28;20474;-66
2022/10/02 06:09:23;;;;;;;5.40;1.50;;;;;;;;;;5068764;28;20040;-64
2022/10/02 06:11:52;;;;;;;5.68;1.75;;;;;;;;;;5063140;28;20023;-64
2022/10/02 06:14:26;;;;;;;6.88;1.85;;;;;;;;;;5083278;28;20047;-65
2022/10/02 06:17:01;;;;;;;7.90;2.20;;;;;;;;;;5076962;28;20133;-64
2022/10/02 06:19:34;;;;;;;8.68;1.95;;;;;;;;;;5061328;28;20032;-64
2022/10/02 06:22:14;;;;;;;9.18;2.65;;;;;;;;;;5059845;28;20032;-64
2022/10/02 06:24:47;;;;;;;7.03;2.67;;;;;;;;;;5065448;28;20502;-64
2022/10/02 06:27:16;;;;;;;8.00;3.00;;;;;;;;;;5082120;28;20095;-64
2022/10/02 06:29:45;;;;;;;10.00;3.63;;;;;;;;;;5077890;28;20039;-64
2022/10/02 06:32:14;;;;;;;9.60;3.80;;;;;;;;;;5073786;28;20479;-64
2022/10/02 06:34:40;;;;;;;9.85;3.92;;;;;;;;;;5076483;28;20165;-64
2022/10/02 06:37:10;;;;;;;8.07;3.30;;;;;;;;;;5090785;28;20496;-66
2022/10/02 06:39:47;;;;;;;8.75;3.90;;;;;;;;;;5087987;28;20359;-65
2022/10/02 06:42:32;;;;;;;9.55;3.42;;;;;;;;;;5084692;28;20044;-64
2022/10/02 06:44:58;;;;;;;10.32;3.42;;;;;;;;;;5084960;28;20039;-65
2022/10/02 06:47:34;;;;;;;9.90;4.70;;;;;;;;;;5082408;28;20397;-65
2022/10/02 06:50:03;;;;;;;10.27;4.20;;;;;;;;;;5076142;28;20628;-65
2022/10/02 06:52:42;;;;;;;10.35;4.00;;;;;;;;;;5084665;27;20035;-65
2022/10/02 06:55:24;;;;;;;9.55;4.00;;;;;;;;;;5084904;27;20027;-65
2022/10/02 06:57:50;;;;;;;8.30;3.58;;;;;;;;;;5081682;27;21036;-67
2022/10/02 07:00:18;;;;;;;9.93;3.38;;;;;;;;;;5085401;27;20032;-65
2022/10/02 07:03:04;;;;;;;10.65;4.00;;;;;;;;;;5089493;28;20040;-66
2022/10/02 07:05:42;;;;;;;10.07;3.70;;;;;;;;;;5081353;28;20534;-64
2022/10/02 07:08:18;;;;;;;10.32;3.40;;;;;;;;;;5065047;28;20047;-65
2022/10/02 07:10:47;;;;;;;8.07;3.33;;;;;;;;;;5067396;28;20025;-65
2022/10/02 07:13:25;;;;;;;11.43;3.55;;;;;;;;;;5066322;28;20523;-64
2022/10/02 07:15:54;;;;;;;10.10;3.35;;;;;;;;;;5087202;27;20525;-64
2022/10/02 07:18:41;;;;;;;10.32;3.22;;;;;;;;;;5081176;28;20089;-64
2022/10/02 07:21:11;;;;;;;9.73;3.30;;;;;;;;;;5083419;28;20028;-66
2022/10/02 07:23:41;;;;;;;10.85;3.30;;;;;;;;;;5061943;28;20096;-65
2022/10/02 07:26:26;;;;;;;8.60;2.70;;;;;;;;;;5071493;28;20120;-64
2022/10/02 07:29:04;;;;;;;9.02;3.10;;;;;;;;;;5072800;28;20035;-65
2022/10/02 07:31:45;;;;;;;8.75;2.50;;;;;;;;;;5062545;28;20024;-65
2022/10/02 07:34:30;;;;;;;6.88;2.13;;;;;;;;;;5079537;28;20035;-64
2022/10/02 07:37:18;;;;;;;7.65;2.08;;;;;;;;;;5082093;28;20485;-64
2022/10/02 07:39:48;;;;;;;10.57;2.63;;;;;;;;;;5065239;28;20381;-66
2022/10/02 07:42:26;;;;;;;7.70;2.08;;;;;;;;;;5073496;28;20108;-65
2022/10/02 07:44:58;;;;;;;8.63;2.10;;;;;;;;;;5056313;28;20028;-65
2022/10/02 07:47:24;;;;;;;6.70;2.20;;;;;;;;;;5082173;28;20028;-65
2022/10/02 07:49:56;;;;;;;7.88;1.88;;;;;;;;;;5061168;28;20363;-65
2022/10/02 07:52:28;;;;;;;10.25;2.65;;;;;;;;;;5081514;28;20032;-65
2022/10/02 07:55:15;;;;;;;12.25;3.33;;;;;;;;;;5079433;28;20092;-65
2022/10/02 07:58:03;;;;;;;9.35;2.70;;;;;;;;;;5077744;28;20466;-65
2022/10/02 08:00:32;;;;;;;8.00;2.33;;;;;;;;;;5059409;28;20059;-65
2022/10/02 08:03:00;;;;;;;9.77;2.20;;;;;;;;;;5084311;28;20028;-64
2022/10/02 08:05:29;;;;;;;10.05;2.40;;;;;;;;;;5066597;28;20138;-64
2022/10/02 08:07:59;;;;;;;8.98;2.30;;;;;;;;;;5070241;28;20027;-64
2022/10/02 08:10:28;;;;;;;8.48;2.45;;;;;;;;;;5046969;28;20854;-65
2022/10/02 08:12:59;;;;;;;8.35;2.30;;;;;;;;;;5073985;28;20039;-64
2022/10/02 08:15:28;;;;;;;7.15;2.05;;;;;;;;;;5061862;28;20044;-64
2022/10/02 08:17:57;;;;;;;5.70;1.40;;;;;;;;;;5072355;28;20027;-64
2022/10/02 08:20:29;;;;;;;6.72;1.42;;;;;;;;;;5077071;28;20024;-64
2022/10/02 08:23:14;;;;;;;8.18;1.45;;;;;;;;;;5074746;28;20015;-64
2022/10/02 08:26:05;;;;;;;8.18;1.67;;;;;;;;;;5016239;28;1441058;-64
2022/10/02 08:28:37;;;;;;;8.82;1.90;;;;;;;;;;5079132;27;20038;-65
2022/10/02 08:31:13;;;;;;;8.57;2.22;;;;;;;;;;5087867;28;20504;-65
2022/10/02 08:33:40;;;;;;;7.97;2.63;;;;;;;;;;5081679;28;21057;-65
2022/10/02 08:36:24;;;;;;;7.07;2.10;;;;;;;;;;5080586;28;20353;-65
2022/10/02 08:38:56;;;;;;;9.88;2.90;;;;;;;;;;5076535;28;20028;-65
2022/10/02 08:41:23;;;;;;;9.55;3.22;;;;;;;;;;5063452;28;20035;-64
2022/10/02 08:43:52;;;;;;;9.68;2.90;;;;;;;;;;5084977;28;20473;-64
2022/10/02 08:46:18;;;;;;;10.15;2.90;;;;;;;;;;5077696;28;20399;-64
2022/10/02 08:48:48;;;;;;;;;;;;;;;;;;5081971;28;20060;-65
2022/10/02 08:51:33;;;;;;;8.45;2.80;;;;;;;;;;5072926;28;20382;-65
2022/10/02 08:54:18;;;;;;;9.10;2.15;;;;;;;;;;5071871;28;20040;-65
2022/10/02 08:57:20;;;;;;;6.47;1.90;;;;;;;;;;5080223;28;20024;-66
2022/10/02 09:00:05;;;;;;;7.32;1.65;;;;;;;;;;4975467;28;20061;-64
2022/10/02 09:02:34;;;;;;;3.83;0.80;;;;;;;;;;4978293;28;20026;-64
2022/10/02 09:05:03;;;;;;;5.88;1.00;;;;;;;;;;4976384;28;20041;-65
2022/10/02 09:08:06;;;;;;;5.82;0.95;;;;;;;;;;4960838;28;20187;-64
2022/10/02 09:10:32;;;;;;;4.93;0.93;;;;;;;;;;4976748;28;20298;-64
2022/10/02 09:13:17;;;;;;;5.32;0.80;;;;;;;;;;4977273;28;20512;-65
2022/10/02 09:15:44;;;;;;;5.13;0.82;;;;;;;;;;4971164;28;20446;-64
2022/10/02 09:18:19;;;;;;;3.88;0.80;;;;;;;;;;4979021;28;20066;-64
2022/10/02 09:21:03;;;;;;;6.60;1.10;;;;;;;;;;4981735;28;20046;-64
2022/10/02 09:23:33;;;;;;;5.22;1.00;;;;;;;;;;4978881;28;20040;-64
2022/10/02 09:26:04;;;;;;;4.53;0.95;;;;;;;;;;4982463;28;20057;-64
2022/10/02 09:28:56;;;;;;;4.82;1.00;;;;;;;;;;4981266;28;20049;-64
2022/10/02 09:31:40;;;;;;;4.63;0.93;;;;;;;;;;4980305;28;20121;-65
2022/10/02 09:34:08;;;;;;;;;;;;;;;;;;5044655;28;20043;-64
2022/10/02 09:36:37;;;;;;;4.70;0.90;;;;;;;;;;5077522;28;19911;-64
2022/10/02 09:39:16;;;;;;;7.07;0.80;;;;;;;;;;5084714;28;20068;-64
2022/10/02 09:41:53;;;;;;;3.50;0.60;;;;;;;;;;5081888;28;20168;-64
2022/10/02 09:44:42;;;;;;;4.03;0.63;;;;;;;;;;5067668;28;20509;-64
2022/10/02 09:47:27;;;;;;;4.28;0.80;;;;;;;;;;5076191;28;20110;-65
2022/10/02 09:50:09;;;;;;;4.50;0.70;;;;;;;;;;5066070;28;20189;-65
2022/10/02 09:52:54;;;;;;;4.07;0.70;;;;;;;;;;5062613;28;20104;-64
2022/10/02 09:55:28;;;;;;;4.85;0.85;;;;;;;;;;5062101;28;20027;-65
2022/10/02 09:58:12;;;;;;;3.58;0.82;;;;;;;;;;5072276;28;20031;-65
2022/10/02 10:00:50;;;;;;;4.72;0.70;;;;;;;;;;5068939;28;20381;-65
2022/10/02 10:03:30;;;;;;;4.78;0.70;;;;;;;;;;5081423;28;20042;-65
2022/10/02 10:05:58;;;;;;;4.00;0.88;;;;;;;;;;5072440;28;20321;-65
2022/10/02 10:08:44;;;;;;;6.03;0.93;;;;;;;;;;5069659;28;20140;-65
2022/10/02 10:11:11;;;;;;;;;;;;;;;;;;5068161;28;20512;-66
2022/10/02 10:13:38;;;;;;;4.75;1.00;;;;;;;;;;5064266;28;20313;-65
2022/10/02 10:16:10;;;;;;;4.82;1.00;;;;;;;;;;5076591;28;20109;-64
2022/10/02 10:18:42;;;;;;;4.45;0.70;;;;;;;;;;5073038;28;20577;-67
2022/10/02 10:21:38;;;;;;;4.35;0.90;;;;;;;;;;5067745;28;20034;-65
2022/10/02 10:24:15;;;;;;;3.22;0.77;;;;;;;;;;5062196;28;20067;-65
2022/10/02 10:27:01;;;;;;;4.70;0.70;;;;;;;;;;5062740;28;20515;-65
2022/10/02 10:29:38;;;;;;;4.85;1.00;;;;;;;;;;5070201;28;20036;-66
2022/10/02 10:32:25;;;;;;;5.45;0.80;;;;;;;;;;5083193;28;20024;-66
2022/10/02 10:35:10;;;;;;;4.65;0.98;;;;;;;;;;5080378;28;20557;-65
2022/10/02 10:40:52;;;;;;;7.32;1.00;;;;;;;;;;5079084;28;20124;-65
2022/10/02 10:43:30;;;;;;;3.35;0.80;;;;;;;;;;5037505;28;20040;-65
2022/10/02 10:46:25;;;;;;;3.22;0.63;;;;;;;;;;5083034;28;20043;-65
2022/10/02 10:49:15;;;;;;;5.00;0.90;;;;;;;;;;5077820;28;20129;-66
2022/10/02 10:51:44;;;;;;;3.45;0.90;;;;;;;;;;5070246;28;20024;-66
2022/10/02 10:54:21;;;;;;;7.03;1.05;;;;;;;;;;5078264;28;20047;-65
2022/10/02 10:56:50;;;;;;;4.88;0.70;;;;;;;;;;5067130;28;20460;-64
2022/10/02 10:59:34;;;;;;;4.05;0.80;;;;;;;;;;5080720;28;20494;-64
2022/10/02 11:02:19;;;;;;;4.32;0.80;;;;;;;;;;5050747;28;20266;-65
2022/10/02 11:05:04;;;;;;;4.95;0.80;;;;;;;;;;5079115;28;20067;-64
2022/10/02 11:07:33;;;;;;;4.82;0.73;;;;;;;;;;5050870;28;20468;-64
2022/10/02 11:10:10;;;;;;;3.85;0.90;;;;;;;;;;5074011;28;20641;-64
2022/10/02 11:12:38;;;;;;;5.35;1.02;;;;;;;;;;5085786;27;20066;-64
2022/10/02 11:15:04;;;;;;;4.07;1.00;;;;;;;;;;5085168;28;20026;-66
2022/10/02 11:17:48;;;;;;;5.55;0.90;;;;;;;;;;5085972;28;20036;-64
2022/10/02 11:20:31;;;;;;;7.32;0.88;;;;;;;;;;5065203;28;20462;-64
2022/10/02 11:23:24;;;;;;;4.38;0.80;;;;;;;;;;5068686;28;20032;-65
2022/10/02 11:26:13;;;;;;;4.43;0.82;;;;;;;;;;5075850;28;20035;-66
2022/10/02 11:28:59;;;;;;;4.75;0.90;;;;;;;;;;5056640;28;20151;-66
2022/10/02 11:31:31;;;;;;;3.40;0.70;;;;;;;;;;5063662;28;20036;-65
2022/10/02 11:34:16;;;;;;;4.63;0.80;;;;;;;;;;5069125;28;20035;-65
2022/10/02 11:36:55;;;;;;;7.13;0.70;;;;;;;;;;5063392;28;20549;-65
2022/10/02 11:39:40;;;;;;;6.55;0.90;;;;;;;;;;5072527;28;20619;-65
2022/10/02 11:42:19;;;;;;;3.43;0.73;;;;;;;;;;5070170;28;20113;-65
2022/10/02 11:44:45;;;;;;;4.22;0.70;;;;;;;;;;5065964;28;20789;-64
2022/10/02 11:47:18;;;;;;;3.70;0.73;;;;;;;;;;5066969;28;20402;-65
2022/10/02 11:50:03;;;;;;;5.15;0.68;;;;;;;;;;5062123;28;20094;-65
2022/10/02 11:52:47;;;;;;;7.18;1.70;;;;;;;;;;5059749;28;20032;-65
2022/10/02 11:55:23;;;;;;;5.90;1.23;;;;;;;;;;5067662;28;20058;-65
2022/10/02 11:57:55;;;;;;;4.28;1.00;;;;;;;;;;5046894;28;20020;-66
2022/10/02 12:00:39;;;;;;;5.88;1.23;;;;;;;;;;5052961;28;20028;-64
2022/10/02 12:03:15;;;;;;;4.63;0.77;;;;;;;;;;5070678;28;20705;-66
2022/10/02 12:05:41;;;;;;;;;;;;;;;;;;5063468;28;20838;-65
2022/10/02 12:08:23;;;;;;;5.10;0.88;;;;;;;;;;5074439;28;19927;-66
2022/10/02 12:10:49;;;;;;;6.72;0.80;;;;;;;;;;5074728;28;20358;-66
2022/10/02 12:13:18;;;;;;;6.13;1.10;;;;;;;;;;5067941;28;20035;-66
2022/10/02 12:15:52;;;;;;;8.13;2.17;;;;;;;;;;5072514;28;20059;-65
2022/10/02 12:18:50;;;;;;;6.45;1.35;;;;;;;;;;5073536;28;20139;-65
2022/10/02 12:27:35;;;;;;;4.30;0.82;;;;;;;;;;5010145;28;20115;-66
2022/10/02 12:30:10;;;;;;;5.38;1.02;;;;;;;;;;5001962;28;20110;-66
2022/10/02 12:32:44;;;;;;;3.35;0.63;;;;;;;;;;5005206;28;20044;-66
2022/10/02 12:35:26;;;;;;;3.93;0.70;;;;;;;;;;5007484;28;20084;-65
2022/10/02 12:37:58;;;;;;;3.00;0.65;;;;;;;;;;5004990;28;20389;-65
2022/10/02 12:40:42;;;;;;;3.00;0.73;;;;;;;;;;5005193;28;20594;-65
2022/10/02 12:43:16;;;;;;;5.50;1.00;;;;;;;;;;5010259;28;20073;-65
2022/10/02 12:45:51;;;;;;;3.13;0.77;;;;;;;;;;5006707;28;20141;-65
2022/10/02 12:48:17;;;;;;;;;;;;;;;;;;5004183;28;20032;-66
2022/10/02 12:50:55;;;;;;;3.78;0.90;;;;;;;;;;5006425;28;19923;-65
2022/10/02 12:53:35;;;;;;;1.67;0.50;;;;;;;;;;5007269;28;20115;-66
2022/10/02 12:56:21;;;;;;;3.47;0.70;;;;;;;;;;4998458;28;20029;-66
2022/10/02 12:58:48;;;;;;;4.50;0.70;;;;;;;;;;5055099;28;20040;-66
2022/10/02 13:01:45;;;;;;;6.05;0.90;;;;;;;;;;5071468;28;20028;-66
2022/10/02 13:04:30;;;;;;;4.18;1.05;;;;;;;;;;5069721;28;20024;-66
2022/10/02 13:07:15;;;;;;;5.00;0.70;;;;;;;;;;5066051;28;20452;-65
2022/10/02 13:10:00;;;;;;;5.20;0.82;;;;;;;;;;5070458;28;20063;-66
2022/10/02 13:12:52;;;;;;;2.22;0.85;;;;;;;;;;5062629;28;20062;-66
2022/10/02 13:15:19;;;;;;;3.92;0.70;;;;;;;;;;5043456;28;20035;-66
2022/10/02 13:17:47;;;;;;;5.78;0.90;;;;;;;;;;5067507;28;20032;-66
2022/10/02 13:20:17;;;;;;;4.88;0.85;;;;;;;;;;5073110;28;20036;-66
2022/10/02 13:23:01;;;;;;;4.35;0.70;;;;;;;;;;5068324;28;20036;-66
2022/10/02 13:25:46;;;;;;;5.95;1.00;;;;;;;;;;5059092;28;20043;-65
2022/10/02 13:28:21;;;;;;;4.22;0.75;;;;;;;;;;5065814;28;20584;-65
2022/10/02 13:30:47;;;;;;;7.10;0.93;;;;;;;;;;5056477;28;20032;-66
2022/10/02 13:33:13;;;;;;;4.22;0.90;;;;;;;;;;5061009;28;20042;-65
2022/10/02 13:35:39;;;;;;;3.90;0.80;;;;;;;;;;5048658;28;22167;-66
2022/10/02 13:38:09;;;;;;;6.07;0.90;;;;;;;;;;5041785;28;20035;-66
2022/10/02 13:40:38;;;;;;;4.40;0.85;;;;;;;;;;5060507;28;20076;-65
2022/10/02 13:43:19;;;;;;;4.97;0.80;;;;;;;;;;5063321;28;20031;-65
2022/10/02 13:46:10;;;;;;;4.78;0.77;;;;;;;;;;5065055;28;20196;-65
2022/10/02 13:48:59;;;;;;;6.13;1.00;;;;;;;;;;5013560;28;20042;-65
2022/10/02 13:51:39;;;;;;;3.90;1.02;;;;;;;;;;5067408;28;20067;-66
2022/10/02 13:54:14;;;;;;;6.25;0.75;;;;;;;;;;5066980;28;20607;-66
2022/10/02 13:57:08;;;;;;;7.43;3.17;;;;;;;;;;5061437;28;20397;-66
2022/10/02 13:59:50;;;;;;;3.80;0.88;;;;;;;;;;5046553;28;20496;-66
2022/10/02 14:02:20;;;;;;;5.15;1.00;;;;;;;;;;5047856;28;20382;-65
2022/10/02 14:04:47;;;;;;;4.22;0.60;;;;;;;;;;5068561;28;20469;-65
2022/10/02 14:07:34;;;;;;;3.13;0.60;;;;;;;;;;5066724;28;20028;-67
2022/10/02 14:10:06;;;;;;;5.47;0.98;;;;;;;;;;5064040;28;20028;-65
2022/10/02 14:12:48;;;;;;;3.78;0.77;;;;;;;;;;5066289;28;20036;-67
2022/10/02 14:15:30;;;;;;;3.47;0.70;;;;;;;;;;5066992;28;20432;-67
2022/10/02 14:18:05;;;;;;;3.53;0.80;;;;;;;;;;5068424;28;20436;-66
2022/10/02 14:20:56;;;;;;;2.42;0.60;;;;;;;;;;5064973;28;20486;-68
2022/10/02 14:23:25;;;;;;;5.07;0.88;;;;;;;;;;5070518;28;20024;-66
2022/10/02 14:25:58;;;;;;;4.75;0.90;;;;;;;;;;5070163;28;20441;-66
2022/10/02 14:28:35;;;;;;;5.50;0.82;;;;;;;;;;5058610;28;20035;-66
2022/10/02 14:31:20;;;;;;;2.45;0.70;;;;;;;;;;5064658;28;20394;-66
2022/10/02 14:34:05;;;;;;;5.03;0.80;;;;;;;;;;5066034;28;20645;-66
2022/10/02 14:36:40;;;;;;;4.38;0.88;;;;;;;;;;5063276;28;20355;-66
2022/10/02 14:39:10;;;;;;;6.45;1.77;;;;;;;;;;5060706;28;20130;-67
2022/10/02 14:42:09;;;;;;;5.32;0.90;;;;;;;;;;5058883;28;20032;-66
2022/10/02 14:44:44;;;;;;;4.43;0.93;;;;;;;;;;5017808;28;20052;-66
2022/10/02 14:47:16;;;;;;;2.92;0.70;;;;;;;;;;5024937;28;20104;-66
2022/10/02 14:49:44;;;;;;;4.70;1.13;;;;;;;;;;5019644;28;20454;-66
2022/10/02 14:52:24;;;;;;;4.88;1.05;;;;;;;;;;5023407;28;20032;-68
2022/10/02 14:54:53;;;;;;;6.05;0.90;;;;;;;;;;5024502;28;20037;-66
2022/10/02 14:57:28;;;;;;;4.18;0.77;;;;;;;;;;5012178;28;20257;-66
2022/10/02 15:00:12;;;;;;;5.82;0.73;;;;;;;;;;5017373;28;20047;-67
2022/10/02 15:02:47;;;;;;;6.38;0.98;;;;;;;;;;5020330;28;20464;-66
2022/10/02 15:05:39;;;;;;;6.47;1.58;;;;;;;;;;5022635;28;20044;-67
2022/10/02 15:08:10;;;;;;;3.83;0.80;;;;;;;;;;5021831;28;20399;-65
2022/10/02 15:10:38;;;;;;;5.00;0.90;;;;;;;;;;5017477;28;20110;-66
2022/10/02 15:13:10;;;;;;;3.20;0.70;;;;;;;;;;5022564;28;20128;-66
2022/10/02 15:15:48;;;;;;;3.13;0.70;;;;;;;;;;5019357;28;20511;-65
2022/10/02 15:18:54;;;;;;;5.78;0.90;;;;;;;;;;5020814;28;20108;-65
2022/10/02 15:21:25;;;;;;;3.72;0.80;;;;;;;;;;5061247;28;20052;-66
2022/10/02 15:23:52;;;;;;;4.63;0.90;;;;;;;;;;5065115;28;20077;-67
2022/10/02 15:26:37;;;;;;;2.65;0.70;;;;;;;;;;5063897;28;20476;-66
2022/10/02 15:29:12;;;;;;;3.08;0.60;;;;;;;;;;5052043;28;20130;-68
2022/10/02 15:31:39;;;;;;;;;;;;;;;;;;5054838;28;20024;-66
2022/10/02 15:34:24;;;;;;;3.80;0.65;;;;;;;;;;5051430;28;20467;-67
2022/10/02 15:37:13;;;;;;;2.88;0.60;;;;;;;;;;5062911;28;20235;-67
2022/10/02 15:39:45;;;;;;;3.47;0.80;;;;;;;;;;5051634;28;20040;-66
2022/10/02 15:42:15;;;;;;;5.40;0.90;;;;;;;;;;5054693;28;20098;-66